sensor_id;sensor_type;location;lat;lon;timestamp;P1;durP1;ratioP1;P2;durP2;ratioP2
31310;SDS011;17937;51.508;7.534;2022-11-20T00:00:43;53.45;;;25.52;;
31310;SDS011;17937;51.508;7.534;2022-11-20T00:03:08;50.08;;;23.70;;
31310;SDS011;17937;51.508;7.534;2022-11-20T00:05:34;51.95;;;24.90;;
31310;SDS011;17937;51.508;7.534;2022-11-20T00:08:00;47.55;;;24.50;;
31310;SDS011;17937;51.508;7.534;2022-11-20T00:10:25;49.10;;;24.42;;
31310;SDS011;17937;51.508;7.534;2022-11-20T00:12:51;51.13;;;23.50;;
31310;SDS011;17937;51.508;7.534;2022-11-20T00:15:17;44.88;;;21.92;;
31310;SDS011;17937;51.508;7.534;2022-11-20T00:17:42;48.40;;;22.35;;
31310;SDS011;17937;51.508;7.534;2022-11-20T00:20:08;48.25;;;23.13;;
31310;SDS011;17937;51.508;7.534;2022-11-20T00:22:34;45.42;;;23.17;;
31310;SDS011;17937;51.508;7.534;2022-11-20T00:25:00;46.33;;;21.88;;
31310;SDS011;17937;51.508;7.534;2022-11-20T00:27:25;49.75;;;23.67;;
31310;SDS011;17937;51.508;7.534;2022-11-20T00:29:51;40.88;;;22.60;;
31310;SDS011;17937;51.508;7.534;2022-11-20T00:32:16;47.58;;;22.73;;
31310;SDS011;17937;51.508;7.534;2022-11-20T00:34:42;45.53;;;21.52;;
31310;SDS011;17937;51.508;7.534;2022-11-20T00:37:07;43.97;;;22.77;;
31310;SDS011;17937;51.508;7.534;2022-11-20T00:39:33;47.08;;;23.55;;
31310;SDS011;17937;51.508;7.534;2022-11-20T00:41:59;45.85;;;22.15;;
31310;SDS011;17937;51.508;7.534;2022-11-20T00:44:24;43.47;;;21.35;;
31310;SDS011;17937;51.508;7.534;2022-11-20T00:46:50;47.38;;;23.63;;
31310;SDS011;17937;51.508;7.534;2022-11-20T00:49:15;53.42;;;24.75;;
31310;SDS011;17937;51.508;7.534;2022-11-20T00:51:41;45.63;;;22.92;;
31310;SDS011;17937;51.508;7.534;2022-11-20T00:54:06;44.85;;;23.25;;
31310;SDS011;17937;51.508;7.534;2022-11-20T00:56:32;48.08;;;24.02;;
31310;SDS011;17937;51.508;7.534;2022-11-20T00:58:59;46.40;;;23.30;;
31310;SDS011;17937;51.508;7.534;2022-11-20T01:01:26;51.00;;;24.15;;
31310;SDS011;17937;51.508;7.534;2022-11-20T01:03:55;48.13;;;23.45;;
31310;SDS011;17937;51.508;7.534;2022-11-20T01:08:49;47.47;;;23.80;;
31310;SDS011;17937;51.508;7.534;2022-11-20T01:11:19;49.78;;;24.15;;
31310;SDS011;17937;51.508;7.534;2022-11-20T01:13:48;47.28;;;24.17;;
31310;SDS011;17937;51.508;7.534;2022-11-20T01:18:51;48.63;;;23.73;;
31310;SDS011;17937;51.508;7.534;2022-11-20T01:21:19;55.22;;;24.70;;
31310;SDS011;17937;51.508;7.534;2022-11-20T01:23:47;51.75;;;24.58;;
31310;SDS011;17937;51.508;7.534;2022-11-20T01:26:14;45.83;;;23.35;;
31310;SDS011;17937;51.508;7.534;2022-11-20T01:28:42;44.20;;;22.23;;
31310;SDS011;17937;51.508;7.534;2022-11-20T01:31:12;53.47;;;25.42;;
31310;SDS011;17937;51.508;7.534;2022-11-20T01:33:40;51.47;;;25.73;;
31310;SDS011;17937;51.508;7.534;2022-11-20T01:36:07;49.92;;;25.17;;
31310;SDS011;17937;51.508;7.534;2022-11-20T01:38:33;58.47;;;27.73;;
31310;SDS011;17937;51.508;7.534;2022-11-20T01:40:59;54.20;;;25.25;;
31310;SDS011;17937;51.508;7.534;2022-11-20T01:43:25;55.85;;;26.38;;
31310;SDS011;17937;51.508;7.534;2022-11-20T01:48:51;48.65;;;23.77;;
31310;SDS011;17937;51.508;7.534;2022-11-20T01:51:42;51.05;;;24.38;;
31310;SDS011;17937;51.508;7.534;2022-11-20T01:54:13;47.83;;;24.05;;
31310;SDS011;17937;51.508;7.534;2022-11-20T01:56:46;54.35;;;24.98;;
31310;SDS011;17937;51.508;7.534;2022-11-20T01:59:17;47.30;;;23.38;;
31310;SDS011;17937;51.508;7.534;2022-11-20T02:01:44;50.03;;;24.20;;
31310;SDS011;17937;51.508;7.534;2022-11-20T02:04:10;52.45;;;23.98;;
31310;SDS011;17937;51.508;7.534;2022-11-20T02:06:42;47.03;;;23.70;;
31310;SDS011;17937;51.508;7.534;2022-11-20T02:09:12;48.65;;;23.35;;
31310;SDS011;17937;51.508;7.534;2022-11-20T02:11:39;46.55;;;23.42;;
31310;SDS011;17937;51.508;7.534;2022-11-20T02:14:04;45.83;;;22.02;;
31310;SDS011;17937;51.508;7.534;2022-11-20T02:16:31;43.80;;;22.23;;
31310;SDS011;17937;51.508;7.534;2022-11-20T02:19:00;44.28;;;21.58;;
31310;SDS011;17937;51.508;7.534;2022-11-20T02:24:12;44.17;;;22.33;;
31310;SDS011;17937;51.508;7.534;2022-11-20T02:26:50;44.90;;;22.13;;
31310;SDS011;17937;51.508;7.534;2022-11-20T02:29:23;42.83;;;22.08;;
31310;SDS011;17937;51.508;7.534;2022-11-20T02:31:52;44.47;;;21.70;;
31310;SDS011;17937;51.508;7.534;2022-11-20T02:34:20;43.05;;;21.48;;
31310;SDS011;17937;51.508;7.534;2022-11-20T02:36:45;43.85;;;20.23;;
31310;SDS011;17937;51.508;7.534;2022-11-20T02:39:13;43.65;;;21.35;;
31310;SDS011;17937;51.508;7.534;2022-11-20T02:41:41;44.25;;;22.40;;
31310;SDS011;17937;51.508;7.534;2022-11-20T02:44:07;41.75;;;20.67;;
31310;SDS011;17937;51.508;7.534;2022-11-20T02:46:33;43.95;;;21.90;;
31310;SDS011;17937;51.508;7.534;2022-11-20T02:49:00;42.08;;;21.58;;
31310;SDS011;17937;51.508;7.534;2022-11-20T02:51:27;44.25;;;21.17;;
31310;SDS011;17937;51.508;7.534;2022-11-20T02:53:53;43.45;;;21.67;;
31310;SDS011;17937;51.508;7.534;2022-11-20T02:56:19;38.80;;;20.58;;
31310;SDS011;17937;51.508;7.534;2022-11-20T02:58:44;40.60;;;20.95;;
31310;SDS011;17937;51.508;7.534;2022-11-20T03:01:10;48.92;;;22.77;;
31310;SDS011;17937;51.508;7.534;2022-11-20T03:03:35;40.92;;;20.42;;
31310;SDS011;17937;51.508;7.534;2022-11-20T03:06:01;38.38;;;20.23;;
31310;SDS011;17937;51.508;7.534;2022-11-20T03:08:27;40.50;;;20.40;;
31310;SDS011;17937;51.508;7.534;2022-11-20T03:10:53;36.63;;;20.08;;
31310;SDS011;17937;51.508;7.534;2022-11-20T03:13:18;43.53;;;21.05;;
31310;SDS011;17937;51.508;7.534;2022-11-20T03:15:44;40.63;;;20.65;;
31310;SDS011;17937;51.508;7.534;2022-11-20T03:18:09;43.00;;;22.08;;
31310;SDS011;17937;51.508;7.534;2022-11-20T03:20:35;37.53;;;20.50;;
31310;SDS011;17937;51.508;7.534;2022-11-20T03:23:01;39.03;;;20.85;;
31310;SDS011;17937;51.508;7.534;2022-11-20T03:25:27;38.67;;;21.10;;
31310;SDS011;17937;51.508;7.534;2022-11-20T03:27:53;37.78;;;20.88;;
31310;SDS011;17937;51.508;7.534;2022-11-20T03:30:19;37.10;;;19.85;;
31310;SDS011;17937;51.508;7.534;2022-11-20T03:32:45;38.58;;;20.48;;
31310;SDS011;17937;51.508;7.534;2022-11-20T03:35:10;42.63;;;20.42;;
31310;SDS011;17937;51.508;7.534;2022-11-20T03:37:36;42.38;;;20.27;;
31310;SDS011;17937;51.508;7.534;2022-11-20T03:40:02;40.90;;;20.92;;
31310;SDS011;17937;51.508;7.534;2022-11-20T03:42:28;40.97;;;20.42;;
31310;SDS011;17937;51.508;7.534;2022-11-20T03:45:21;37.55;;;18.83;;
31310;SDS011;17937;51.508;7.534;2022-11-20T03:47:46;39.05;;;20.13;;
31310;SDS011;17937;51.508;7.534;2022-11-20T03:50:12;40.13;;;19.55;;
31310;SDS011;17937;51.508;7.534;2022-11-20T03:52:39;36.00;;;19.80;;
31310;SDS011;17937;51.508;7.534;2022-11-20T03:55:05;38.15;;;20.10;;
31310;SDS011;17937;51.508;7.534;2022-11-20T03:57:31;36.05;;;20.13;;
31310;SDS011;17937;51.508;7.534;2022-11-20T03:59:57;40.08;;;20.25;;
31310;SDS011;17937;51.508;7.534;2022-11-20T04:02:22;39.35;;;21.52;;
31310;SDS011;17937;51.508;7.534;2022-11-20T04:04:48;37.78;;;20.05;;
31310;SDS011;17937;51.508;7.534;2022-11-20T04:07:13;37.78;;;19.80;;
31310;SDS011;17937;51.508;7.534;2022-11-20T04:09:39;36.70;;;19.02;;
31310;SDS011;17937;51.508;7.534;2022-11-20T04:12:05;36.95;;;19.38;;
31310;SDS011;17937;51.508;7.534;2022-11-20T04:14:31;36.83;;;19.67;;
31310;SDS011;17937;51.508;7.534;2022-11-20T04:16:56;36.78;;;19.58;;
31310;SDS011;17937;51.508;7.534;2022-11-20T04:19:22;39.03;;;20.20;;
31310;SDS011;17937;51.508;7.534;2022-11-20T04:21:47;34.90;;;19.10;;
31310;SDS011;17937;51.508;7.534;2022-11-20T04:24:13;35.75;;;19.17;;
31310;SDS011;17937;51.508;7.534;2022-11-20T04:26:39;38.40;;;20.48;;
31310;SDS011;17937;51.508;7.534;2022-11-20T04:29:04;36.55;;;18.48;;
31310;SDS011;17937;51.508;7.534;2022-11-20T04:31:31;36.85;;;18.60;;
31310;SDS011;17937;51.508;7.534;2022-11-20T04:34:01;41.28;;;20.52;;
31310;SDS011;17937;51.508;7.534;2022-11-20T04:36:29;36.15;;;18.95;;
31310;SDS011;17937;51.508;7.534;2022-11-20T04:38:56;40.00;;;19.20;;
31310;SDS011;17937;51.508;7.534;2022-11-20T04:41:33;38.83;;;20.55;;
31310;SDS011;17937;51.508;7.534;2022-11-20T04:44:00;32.38;;;18.52;;
31310;SDS011;17937;51.508;7.534;2022-11-20T04:46:29;33.17;;;17.48;;
31310;SDS011;17937;51.508;7.534;2022-11-20T04:48:58;33.80;;;18.17;;
31310;SDS011;17937;51.508;7.534;2022-11-20T04:51:24;31.38;;;17.52;;
31310;SDS011;17937;51.508;7.534;2022-11-20T04:53:50;37.17;;;18.40;;
31310;SDS011;17937;51.508;7.534;2022-11-20T04:56:16;34.80;;;18.35;;
31310;SDS011;17937;51.508;7.534;2022-11-20T04:58:42;36.33;;;17.77;;
31310;SDS011;17937;51.508;7.534;2022-11-20T05:01:12;34.35;;;18.33;;
31310;SDS011;17937;51.508;7.534;2022-11-20T05:03:40;35.42;;;17.58;;
31310;SDS011;17937;51.508;7.534;2022-11-20T05:06:06;34.60;;;18.60;;
31310;SDS011;17937;51.508;7.534;2022-11-20T05:08:32;36.65;;;18.70;;
31310;SDS011;17937;51.508;7.534;2022-11-20T05:11:06;35.70;;;17.83;;
31310;SDS011;17937;51.508;7.534;2022-11-20T05:13:33;35.63;;;17.92;;
31310;SDS011;17937;51.508;7.534;2022-11-20T05:16:06;33.83;;;18.20;;
31310;SDS011;17937;51.508;7.534;2022-11-20T05:18:34;38.08;;;17.73;;
31310;SDS011;17937;51.508;7.534;2022-11-20T05:21:00;30.35;;;16.98;;
31310;SDS011;17937;51.508;7.534;2022-11-20T05:23:26;32.50;;;18.63;;
31310;SDS011;17937;51.508;7.534;2022-11-20T05:25:53;32.70;;;17.00;;
31310;SDS011;17937;51.508;7.534;2022-11-20T05:28:20;35.95;;;18.27;;
31310;SDS011;17937;51.508;7.534;2022-11-20T05:30:45;32.15;;;16.67;;
31310;SDS011;17937;51.508;7.534;2022-11-20T05:33:11;31.67;;;16.95;;
31310;SDS011;17937;51.508;7.534;2022-11-20T05:35:36;31.13;;;16.35;;
31310;SDS011;17937;51.508;7.534;2022-11-20T05:38:02;34.58;;;17.08;;
31310;SDS011;17937;51.508;7.534;2022-11-20T05:40:27;31.15;;;16.38;;
31310;SDS011;17937;51.508;7.534;2022-11-20T05:42:53;33.00;;;17.08;;
31310;SDS011;17937;51.508;7.534;2022-11-20T05:45:18;30.08;;;16.33;;
31310;SDS011;17937;51.508;7.534;2022-11-20T05:47:44;30.23;;;17.23;;
31310;SDS011;17937;51.508;7.534;2022-11-20T05:50:09;32.47;;;16.15;;
31310;SDS011;17937;51.508;7.534;2022-11-20T05:52:35;29.10;;;15.65;;
31310;SDS011;17937;51.508;7.534;2022-11-20T05:55:01;29.35;;;15.07;;
31310;SDS011;17937;51.508;7.534;2022-11-20T05:57:26;29.77;;;15.88;;
31310;SDS011;17937;51.508;7.534;2022-11-20T05:59:52;30.90;;;15.68;;
31310;SDS011;17937;51.508;7.534;2022-11-20T06:02:17;30.45;;;16.38;;
31310;SDS011;17937;51.508;7.534;2022-11-20T06:04:43;29.42;;;15.52;;
31310;SDS011;17937;51.508;7.534;2022-11-20T06:07:09;33.22;;;16.48;;
31310;SDS011;17937;51.508;7.534;2022-11-20T06:09:34;30.20;;;15.77;;
31310;SDS011;17937;51.508;7.534;2022-11-20T06:12:00;31.98;;;15.25;;
31310;SDS011;17937;51.508;7.534;2022-11-20T06:14:25;29.83;;;15.20;;
31310;SDS011;17937;51.508;7.534;2022-11-20T06:16:51;29.42;;;16.52;;
31310;SDS011;17937;51.508;7.534;2022-11-20T06:19:16;26.15;;;14.65;;
31310;SDS011;17937;51.508;7.534;2022-11-20T06:21:42;27.42;;;14.65;;
31310;SDS011;17937;51.508;7.534;2022-11-20T06:24:11;35.78;;;16.20;;
31310;SDS011;17937;51.508;7.534;2022-11-20T06:26:36;31.35;;;16.25;;
31310;SDS011;17937;51.508;7.534;2022-11-20T06:29:02;28.35;;;15.63;;
31310;SDS011;17937;51.508;7.534;2022-11-20T06:31:27;26.55;;;14.70;;
31310;SDS011;17937;51.508;7.534;2022-11-20T06:33:53;30.30;;;16.23;;
31310;SDS011;17937;51.508;7.534;2022-11-20T06:36:20;29.27;;;16.08;;
31310;SDS011;17937;51.508;7.534;2022-11-20T06:38:47;27.33;;;15.30;;
31310;SDS011;17937;51.508;7.534;2022-11-20T06:41:14;32.08;;;16.10;;
31310;SDS011;17937;51.508;7.534;2022-11-20T06:43:41;29.63;;;15.30;;
31310;SDS011;17937;51.508;7.534;2022-11-20T06:46:08;27.48;;;15.32;;
31310;SDS011;17937;51.508;7.534;2022-11-20T06:48:35;30.00;;;15.85;;
31310;SDS011;17937;51.508;7.534;2022-11-20T06:51:02;33.60;;;16.85;;
31310;SDS011;17937;51.508;7.534;2022-11-20T06:53:29;29.25;;;15.50;;
31310;SDS011;17937;51.508;7.534;2022-11-20T06:55:55;30.55;;;15.55;;
31310;SDS011;17937;51.508;7.534;2022-11-20T06:58:22;30.35;;;15.10;;
31310;SDS011;17937;51.508;7.534;2022-11-20T07:00:48;30.85;;;15.63;;
31310;SDS011;17937;51.508;7.534;2022-11-20T07:03:14;31.25;;;14.18;;
31310;SDS011;17937;51.508;7.534;2022-11-20T07:05:39;28.15;;;14.23;;
31310;SDS011;17937;51.508;7.534;2022-11-20T07:08:05;27.40;;;14.65;;
31310;SDS011;17937;51.508;7.534;2022-11-20T07:10:31;28.25;;;14.63;;
31310;SDS011;17937;51.508;7.534;2022-11-20T07:12:57;30.60;;;14.98;;
31310;SDS011;17937;51.508;7.534;2022-11-20T07:15:23;25.65;;;14.23;;
31310;SDS011;17937;51.508;7.534;2022-11-20T07:17:50;26.75;;;14.77;;
31310;SDS011;17937;51.508;7.534;2022-11-20T07:20:15;29.05;;;14.07;;
31310;SDS011;17937;51.508;7.534;2022-11-20T07:22:41;29.48;;;15.25;;
31310;SDS011;17937;51.508;7.534;2022-11-20T07:25:07;28.67;;;15.07;;
31310;SDS011;17937;51.508;7.534;2022-11-20T07:27:34;31.10;;;15.68;;
31310;SDS011;17937;51.508;7.534;2022-11-20T07:29:59;25.58;;;13.90;;
31310;SDS011;17937;51.508;7.534;2022-11-20T07:32:25;26.92;;;14.00;;
31310;SDS011;17937;51.508;7.534;2022-11-20T07:34:51;29.17;;;14.00;;
31310;SDS011;17937;51.508;7.534;2022-11-20T07:37:17;27.95;;;14.48;;
31310;SDS011;17937;51.508;7.534;2022-11-20T07:39:42;29.75;;;15.40;;
31310;SDS011;17937;51.508;7.534;2022-11-20T07:42:08;30.48;;;15.30;;
31310;SDS011;17937;51.508;7.534;2022-11-20T07:44:34;30.52;;;15.10;;
31310;SDS011;17937;51.508;7.534;2022-11-20T07:47:00;32.08;;;15.57;;
31310;SDS011;17937;51.508;7.534;2022-11-20T07:49:26;29.05;;;15.32;;
31310;SDS011;17937;51.508;7.534;2022-11-20T07:51:52;32.15;;;15.75;;
31310;SDS011;17937;51.508;7.534;2022-11-20T07:54:19;35.80;;;15.68;;
31310;SDS011;17937;51.508;7.534;2022-11-20T07:56:45;27.50;;;15.55;;
31310;SDS011;17937;51.508;7.534;2022-11-20T07:59:11;26.90;;;15.02;;
31310;SDS011;17937;51.508;7.534;2022-11-20T08:01:37;31.00;;;16.35;;
31310;SDS011;17937;51.508;7.534;2022-11-20T08:04:03;30.77;;;15.68;;
31310;SDS011;17937;51.508;7.534;2022-11-20T08:06:28;28.65;;;15.65;;
31310;SDS011;17937;51.508;7.534;2022-11-20T08:08:54;29.67;;;14.88;;
31310;SDS011;17937;51.508;7.534;2022-11-20T08:11:19;29.73;;;14.98;;
31310;SDS011;17937;51.508;7.534;2022-11-20T08:14:03;29.85;;;15.77;;
31310;SDS011;17937;51.508;7.534;2022-11-20T08:16:43;27.90;;;14.93;;
31310;SDS011;17937;51.508;7.534;2022-11-20T08:19:11;28.60;;;14.88;;
31310;SDS011;17937;51.508;7.534;2022-11-20T08:21:38;25.77;;;15.15;;
31310;SDS011;17937;51.508;7.534;2022-11-20T08:24:04;23.73;;;13.82;;
31310;SDS011;17937;51.508;7.534;2022-11-20T08:26:30;20.10;;;13.07;;
31310;SDS011;17937;51.508;7.534;2022-11-20T08:28:56;21.92;;;14.15;;
31310;SDS011;17937;51.508;7.534;2022-11-20T08:31:22;23.15;;;14.18;;
31310;SDS011;17937;51.508;7.534;2022-11-20T08:33:49;22.67;;;14.25;;
31310;SDS011;17937;51.508;7.534;2022-11-20T08:36:15;19.85;;;13.63;;
31310;SDS011;17937;51.508;7.534;2022-11-20T08:38:42;23.80;;;14.18;;
31310;SDS011;17937;51.508;7.534;2022-11-20T08:41:11;21.90;;;14.27;;
31310;SDS011;17937;51.508;7.534;2022-11-20T08:43:49;21.73;;;13.48;;
31310;SDS011;17937;51.508;7.534;2022-11-20T08:46:16;20.83;;;14.50;;
31310;SDS011;17937;51.508;7.534;2022-11-20T08:48:42;22.05;;;13.88;;
31310;SDS011;17937;51.508;7.534;2022-11-20T08:51:08;20.67;;;14.35;;
31310;SDS011;17937;51.508;7.534;2022-11-20T08:53:34;21.20;;;14.18;;
31310;SDS011;17937;51.508;7.534;2022-11-20T08:55:59;26.02;;;15.40;;
31310;SDS011;17937;51.508;7.534;2022-11-20T08:58:25;24.15;;;15.93;;
31310;SDS011;17937;51.508;7.534;2022-11-20T09:00:51;24.60;;;15.70;;
31310;SDS011;17937;51.508;7.534;2022-11-20T09:03:17;24.65;;;15.48;;
31310;SDS011;17937;51.508;7.534;2022-11-20T09:05:42;26.02;;;15.70;;
31310;SDS011;17937;51.508;7.534;2022-11-20T09:08:08;22.17;;;15.50;;
31310;SDS011;17937;51.508;7.534;2022-11-20T09:10:34;22.95;;;14.95;;
31310;SDS011;17937;51.508;7.534;2022-11-20T09:13:00;23.05;;;14.57;;
31310;SDS011;17937;51.508;7.534;2022-11-20T09:15:26;24.83;;;15.07;;
31310;SDS011;17937;51.508;7.534;2022-11-20T09:17:52;22.45;;;14.68;;
31310;SDS011;17937;51.508;7.534;2022-11-20T09:20:19;24.17;;;15.38;;
31310;SDS011;17937;51.508;7.534;2022-11-20T09:22:45;21.88;;;15.55;;
31310;SDS011;17937;51.508;7.534;2022-11-20T09:25:10;25.13;;;15.40;;
31310;SDS011;17937;51.508;7.534;2022-11-20T09:27:36;21.65;;;14.02;;
31310;SDS011;17937;51.508;7.534;2022-11-20T09:30:02;21.23;;;13.73;;
31310;SDS011;17937;51.508;7.534;2022-11-20T09:32:28;24.77;;;14.60;;
31310;SDS011;17937;51.508;7.534;2022-11-20T09:34:53;22.30;;;12.07;;
31310;SDS011;17937;51.508;7.534;2022-11-20T09:37:19;24.30;;;13.77;;
31310;SDS011;17937;51.508;7.534;2022-11-20T09:39:44;20.33;;;12.68;;
31310;SDS011;17937;51.508;7.534;2022-11-20T09:52:55;19.75;;;12.15;;
31310;SDS011;17937;51.508;7.534;2022-11-20T09:55:24;21.40;;;12.27;;
31310;SDS011;17937;51.508;7.534;2022-11-20T09:57:51;25.77;;;13.43;;
31310;SDS011;17937;51.508;7.534;2022-11-20T10:00:17;28.58;;;15.95;;
31310;SDS011;17937;51.508;7.534;2022-11-20T10:10:41;29.38;;;14.38;;
31310;SDS011;17937;51.508;7.534;2022-11-20T10:13:21;23.08;;;14.48;;
31310;SDS011;17937;51.508;7.534;2022-11-20T10:16:22;25.77;;;15.35;;
31310;SDS011;17937;51.508;7.534;2022-11-20T10:19:01;26.80;;;14.63;;
31310;SDS011;17937;51.508;7.534;2022-11-20T10:21:45;23.00;;;13.32;;
31310;SDS011;17937;51.508;7.534;2022-11-20T10:24:26;24.48;;;13.65;;
31310;SDS011;17937;51.508;7.534;2022-11-20T10:30:09;26.08;;;13.95;;
31310;SDS011;17937;51.508;7.534;2022-11-20T10:32:43;24.58;;;14.77;;
31310;SDS011;17937;51.508;7.534;2022-11-20T10:37:40;24.85;;;14.40;;
31310;SDS011;17937;51.508;7.534;2022-11-20T10:42:51;26.58;;;15.23;;
31310;SDS011;17937;51.508;7.534;2022-11-20T10:47:49;25.85;;;15.50;;
31310;SDS011;17937;51.508;7.534;2022-11-20T10:50:20;25.00;;;15.10;;
31310;SDS011;17937;51.508;7.534;2022-11-20T10:56:04;25.38;;;14.05;;
31310;SDS011;17937;51.508;7.534;2022-11-20T10:58:45;23.75;;;14.10;;
31310;SDS011;17937;51.508;7.534;2022-11-20T11:01:22;24.58;;;14.75;;
31310;SDS011;17937;51.508;7.534;2022-11-20T11:03:48;22.40;;;14.15;;
31310;SDS011;17937;51.508;7.534;2022-11-20T11:09:09;24.50;;;14.23;;
31310;SDS011;17937;51.508;7.534;2022-11-20T11:11:41;18.48;;;11.10;;
31310;SDS011;17937;51.508;7.534;2022-11-20T11:14:07;19.92;;;10.95;;
31310;SDS011;17937;51.508;7.534;2022-11-20T11:16:44;16.60;;;10.23;;
31310;SDS011;17937;51.508;7.534;2022-11-20T11:19:16;15.75;;;9.98;;
31310;SDS011;17937;51.508;7.534;2022-11-20T11:21:46;14.57;;;8.98;;
31310;SDS011;17937;51.508;7.534;2022-11-20T11:24:19;11.95;;;8.23;;
31310;SDS011;17937;51.508;7.534;2022-11-20T11:26:55;16.58;;;8.85;;
31310;SDS011;17937;51.508;7.534;2022-11-20T11:29:23;16.42;;;10.27;;
31310;SDS011;17937;51.508;7.534;2022-11-20T11:31:51;16.02;;;10.18;;
31310;SDS011;17937;51.508;7.534;2022-11-20T11:34:32;17.38;;;10.60;;
31310;SDS011;17937;51.508;7.534;2022-11-20T11:36:58;26.17;;;12.63;;
31310;SDS011;17937;51.508;7.534;2022-11-20T11:39:26;17.48;;;11.05;;
31310;SDS011;17937;51.508;7.534;2022-11-20T11:41:53;20.33;;;10.93;;
31310;SDS011;17937;51.508;7.534;2022-11-20T11:44:21;20.45;;;11.48;;
31310;SDS011;17937;51.508;7.534;2022-11-20T11:55:35;18.35;;;11.02;;
31310;SDS011;17937;51.508;7.534;2022-11-20T12:00:34;17.30;;;10.90;;
31310;SDS011;17937;51.508;7.534;2022-11-20T12:03:15;20.38;;;10.60;;
31310;SDS011;17937;51.508;7.534;2022-11-20T12:05:52;19.17;;;11.60;;
31310;SDS011;17937;51.508;7.534;2022-11-20T12:08:43;21.25;;;12.02;;
31310;SDS011;17937;51.508;7.534;2022-11-20T12:11:15;18.73;;;10.60;;
31310;SDS011;17937;51.508;7.534;2022-11-20T12:16:19;19.05;;;10.30;;
31310;SDS011;17937;51.508;7.534;2022-11-20T12:18:46;19.98;;;10.52;;
31310;SDS011;17937;51.508;7.534;2022-11-20T12:21:26;17.17;;;10.07;;
31310;SDS011;17937;51.508;7.534;2022-11-20T12:27:15;15.57;;;9.30;;
31310;SDS011;17937;51.508;7.534;2022-11-20T12:30:10;20.52;;;11.77;;
31310;SDS011;17937;51.508;7.534;2022-11-20T12:40:56;17.65;;;10.27;;
31310;SDS011;17937;51.508;7.534;2022-11-20T12:43:28;20.33;;;12.05;;
31310;SDS011;17937;51.508;7.534;2022-11-20T12:46:22;21.35;;;12.43;;
31310;SDS011;17937;51.508;7.534;2022-11-20T12:49:24;22.52;;;13.27;;
31310;SDS011;17937;51.508;7.534;2022-11-20T12:52:20;19.63;;;11.55;;
31310;SDS011;17937;51.508;7.534;2022-11-20T13:00:19;17.27;;;10.82;;
31310;SDS011;17937;51.508;7.534;2022-11-20T13:08:24;19.10;;;10.40;;
31310;SDS011;17937;51.508;7.534;2022-11-20T13:13:42;19.55;;;10.80;;
31310;SDS011;17937;51.508;7.534;2022-11-20T13:16:21;23.30;;;11.98;;
31310;SDS011;17937;51.508;7.534;2022-11-20T13:19:11;20.27;;;12.50;;
31310;SDS011;17937;51.508;7.534;2022-11-20T13:21:39;27.38;;;13.25;;
31310;SDS011;17937;51.508;7.534;2022-11-20T13:24:07;21.95;;;13.07;;
31310;SDS011;17937;51.508;7.534;2022-11-20T13:26:45;23.15;;;12.90;;
31310;SDS011;17937;51.508;7.534;2022-11-20T13:29:12;26.23;;;12.57;;
31310;SDS011;17937;51.508;7.534;2022-11-20T13:31:43;21.85;;;11.98;;
31310;SDS011;17937;51.508;7.534;2022-11-20T13:34:12;24.02;;;12.80;;
31310;SDS011;17937;51.508;7.534;2022-11-20T13:36:51;26.25;;;13.25;;
31310;SDS011;17937;51.508;7.534;2022-11-20T13:39:27;22.52;;;12.95;;
31310;SDS011;17937;51.508;7.534;2022-11-20T13:41:56;20.55;;;12.73;;
31310;SDS011;17937;51.508;7.534;2022-11-20T13:44:42;22.57;;;13.10;;
31310;SDS011;17937;51.508;7.534;2022-11-20T13:47:21;23.45;;;12.55;;
31310;SDS011;17937;51.508;7.534;2022-11-20T13:49:49;22.05;;;13.00;;
31310;SDS011;17937;51.508;7.534;2022-11-20T14:00:45;23.23;;;13.32;;
31310;SDS011;17937;51.508;7.534;2022-11-20T14:03:19;22.45;;;12.70;;
31310;SDS011;17937;51.508;7.534;2022-11-20T14:06:10;23.63;;;13.48;;
31310;SDS011;17937;51.508;7.534;2022-11-20T14:08:56;23.45;;;13.13;;
31310;SDS011;17937;51.508;7.534;2022-11-20T14:11:24;20.15;;;11.70;;
31310;SDS011;17937;51.508;7.534;2022-11-20T14:13:58;22.70;;;12.65;;
31310;SDS011;17937;51.508;7.534;2022-11-20T14:16:29;23.23;;;13.38;;
31310;SDS011;17937;51.508;7.534;2022-11-20T14:18:57;25.55;;;12.63;;
31310;SDS011;17937;51.508;7.534;2022-11-20T14:21:41;25.02;;;13.60;;
31310;SDS011;17937;51.508;7.534;2022-11-20T14:24:09;22.10;;;12.77;;
31310;SDS011;17937;51.508;7.534;2022-11-20T14:26:36;25.65;;;13.75;;
31310;SDS011;17937;51.508;7.534;2022-11-20T14:29:11;22.60;;;12.68;;
31310;SDS011;17937;51.508;7.534;2022-11-20T14:31:41;22.67;;;12.88;;
31310;SDS011;17937;51.508;7.534;2022-11-20T14:34:15;23.35;;;14.07;;
31310;SDS011;17937;51.508;7.534;2022-11-20T14:36:44;23.75;;;13.27;;
31310;SDS011;17937;51.508;7.534;2022-11-20T14:39:22;25.38;;;14.02;;
31310;SDS011;17937;51.508;7.534;2022-11-20T14:41:51;22.35;;;13.10;;
31310;SDS011;17937;51.508;7.534;2022-11-20T14:44:19;25.48;;;13.40;;
31310;SDS011;17937;51.508;7.534;2022-11-20T14:46:49;23.13;;;13.23;;
31310;SDS011;17937;51.508;7.534;2022-11-20T14:49:16;24.17;;;13.30;;
31310;SDS011;17937;51.508;7.534;2022-11-20T14:51:41;22.38;;;12.77;;
31310;SDS011;17937;51.508;7.534;2022-11-20T14:54:08;25.42;;;12.75;;
31310;SDS011;17937;51.508;7.534;2022-11-20T14:56:35;23.98;;;12.52;;
31310;SDS011;17937;51.508;7.534;2022-11-20T14:59:01;22.98;;;12.57;;
31310;SDS011;17937;51.508;7.534;2022-11-20T15:01:30;22.48;;;12.10;;
31310;SDS011;17937;51.508;7.534;2022-11-20T15:03:59;23.52;;;11.77;;
31310;SDS011;17937;51.508;7.534;2022-11-20T15:06:32;23.70;;;12.15;;
31310;SDS011;17937;51.508;7.534;2022-11-20T15:08:58;22.45;;;12.82;;
31310;SDS011;17937;51.508;7.534;2022-11-20T15:11:28;24.13;;;12.30;;
31310;SDS011;17937;51.508;7.534;2022-11-20T15:13:55;26.15;;;14.60;;
31310;SDS011;17937;51.508;7.534;2022-11-20T15:16:22;25.15;;;13.23;;
31310;SDS011;17937;51.508;7.534;2022-11-20T15:18:49;22.48;;;12.95;;
31310;SDS011;17937;51.508;7.534;2022-11-20T15:21:16;24.00;;;13.52;;
31310;SDS011;17937;51.508;7.534;2022-11-20T15:23:43;25.85;;;14.15;;
31310;SDS011;17937;51.508;7.534;2022-11-20T15:26:09;26.00;;;14.40;;
31310;SDS011;17937;51.508;7.534;2022-11-20T15:28:40;27.55;;;14.98;;
31310;SDS011;17937;51.508;7.534;2022-11-20T15:31:14;28.25;;;14.32;;
31310;SDS011;17937;51.508;7.534;2022-11-20T15:33:44;29.42;;;14.77;;
31310;SDS011;17937;51.508;7.534;2022-11-20T15:36:10;29.27;;;15.00;;
31310;SDS011;17937;51.508;7.534;2022-11-20T15:38:36;28.63;;;15.70;;
31310;SDS011;17937;51.508;7.534;2022-11-20T15:41:02;31.08;;;17.02;;
31310;SDS011;17937;51.508;7.534;2022-11-20T15:43:27;27.98;;;15.88;;
31310;SDS011;17937;51.508;7.534;2022-11-20T15:45:54;31.00;;;16.33;;
31310;SDS011;17937;51.508;7.534;2022-11-20T15:48:24;34.88;;;17.75;;
31310;SDS011;17937;51.508;7.534;2022-11-20T15:50:57;32.78;;;16.92;;
31310;SDS011;17937;51.508;7.534;2022-11-20T15:53:28;33.25;;;17.45;;
31310;SDS011;17937;51.508;7.534;2022-11-20T15:55:54;34.45;;;18.23;;
31310;SDS011;17937;51.508;7.534;2022-11-20T15:58:20;34.13;;;18.80;;
31310;SDS011;17937;51.508;7.534;2022-11-20T16:00:47;37.60;;;18.30;;
31310;SDS011;17937;51.508;7.534;2022-11-20T16:03:13;33.80;;;18.42;;